Time;durP1;ratioP1;P1;durP2;ratioP2;P2;SDS_P1;SDS_P2;PMS_P1;PMS_P2;Temp;Humidity;BMP_temperature;BMP_pressure;BME280_temperature;BME280_humidity;BME280_pressure;Samples;Min_cycle;Max_cycle;Signal;HPM_P1;HPM_P2
2022/04/06 00:02:06;;;;;;;22.33;15.63;;;5.10;99.90;;;;;;5115825;28;20024;-73
2022/04/06 00:04:31;;;;;;;23.90;16.33;;;5.00;99.90;;;;;;5114444;28;20080;-74
2022/04/06 00:06:57;;;;;;;21.98;16.20;;;5.10;99.90;;;;;;5114307;28;20028;-72
2022/04/06 00:09:22;;;;;;;24.60;16.02;;;5.10;99.90;;;;;;5115679;28;20064;-73
2022/04/06 00:11:49;;;;;;;23.85;16.17;;;5.10;99.90;;;;;;5114800;28;20469;-72
2022/04/06 00:14:15;;;;;;;22.33;16.50;;;5.10;99.90;;;;;;5114319;28;20024;-74
2022/04/06 00:16:40;;;;;;;24.17;17.30;;;5.10;99.90;;;;;;5115452;28;20023;-72
2022/04/06 00:19:06;;;;;;;23.08;15.95;;;5.10;99.90;;;;;;5115484;28;20036;-73
2022/04/06 00:21:31;;;;;;;22.48;15.70;;;5.10;99.90;;;;;;5115503;28;20080;-73
2022/04/06 00:23:58;;;;;;;23.95;16.15;;;5.10;99.90;;;;;;5115525;28;20517;-72
2022/04/06 00:26:25;;;;;;;19.35;14.18;;;5.10;99.90;;;;;;5115386;28;20042;-73
2022/04/06 00:28:51;;;;;;;19.13;14.45;;;5.20;99.90;;;;;;5115235;28;20425;-73
2022/04/06 00:31:16;;;;;;;21.20;15.15;;;5.20;99.90;;;;;;5115078;28;20139;-72
2022/04/06 00:33:42;;;;;;;22.25;15.70;;;5.20;99.90;;;;;;5113955;28;20055;-73
2022/04/06 00:36:07;;;;;;;18.50;13.18;;;5.20;99.90;;;;;;5115241;28;20024;-72
2022/04/06 00:38:33;;;;;;;18.17;12.90;;;5.20;99.90;;;;;;5113911;28;20082;-73
2022/04/06 00:40:59;;;;;;;17.65;13.48;;;5.20;99.90;;;;;;5115025;28;20034;-72
2022/04/06 00:43:24;;;;;;;17.92;13.38;;;5.20;99.90;;;;;;5115160;28;20025;-72
2022/04/06 00:45:50;;;;;;;18.58;13.52;;;5.20;99.90;;;;;;5114860;28;20480;-73
2022/04/06 00:48:15;;;;;;;16.77;12.27;;;5.20;99.90;;;;;;5115050;28;20026;-73
2022/04/06 00:50:44;;;;;;;16.13;12.27;;;5.20;99.90;;;;;;5114852;28;20024;-72
2022/04/06 00:53:13;;;;;;;17.88;13.15;;;5.30;99.90;;;;;;5114791;28;20534;-73
2022/04/06 00:55:39;;;;;;;18.08;12.52;;;5.30;99.90;;;;;;5114833;28;20111;-73
2022/04/06 00:58:06;;;;;;;16.05;12.52;;;5.30;99.90;;;;;;5113352;28;20032;-73
2022/04/06 01:00:32;;;;;;;14.82;11.32;;;5.30;99.90;;;;;;5114791;28;20027;-73
2022/04/06 01:02:58;;;;;;;15.60;12.00;;;5.30;99.90;;;;;;5114632;28;20023;-72
2022/04/06 01:05:25;;;;;;;18.83;13.50;;;5.30;99.90;;;;;;5114714;28;20084;-73
2022/04/06 01:07:53;;;;;;;16.90;12.15;;;5.30;99.90;;;;;;5114445;28;20031;-72
2022/04/06 01:10:19;;;;;;;16.23;12.05;;;5.40;99.90;;;;;;5114116;28;20019;-73
2022/04/06 01:12:46;;;;;;;16.55;11.77;;;5.40;99.90;;;;;;5114321;28;20030;-73
2022/04/06 01:15:12;;;;;;;15.75;11.70;;;5.40;99.90;;;;;;5114446;27;20389;-73
2022/04/06 01:17:38;;;;;;;14.00;10.77;;;5.50;99.90;;;;;;5112836;28;20084;-72
2022/04/06 01:20:07;;;;;;;13.25;10.40;;;5.50;99.90;;;;;;5113088;28;20051;-74
2022/04/06 01:22:34;;;;;;;14.32;11.18;;;5.50;99.90;;;;;;5114108;28;20107;-74
2022/04/06 01:25:00;;;;;;;14.43;9.88;;;5.50;99.90;;;;;;5113003;28;20473;-73
2022/04/06 01:27:26;;;;;;;11.18;9.55;;;5.60;99.90;;;;;;5114153;28;20499;-73
2022/04/06 01:29:52;;;;;;;13.15;10.10;;;5.50;99.90;;;;;;5114151;28;20094;-72
2022/04/06 01:32:32;;;;;;;13.90;9.50;;;5.50;99.90;;;;;;5112747;28;20130;-74
2022/04/06 01:34:59;;;;;;;11.05;9.10;;;5.60;99.90;;;;;;5114073;28;20095;-73
2022/04/06 01:37:25;;;;;;;11.55;9.68;;;5.60;99.90;;;;;;5114025;28;20023;-74
2022/04/06 01:39:51;;;;;;;12.50;9.02;;;5.60;99.90;;;;;;5113988;28;20028;-72
2022/04/06 01:42:18;;;;;;;10.38;8.90;;;5.60;99.90;;;;;;5112751;28;20047;-73
2022/04/06 01:44:45;;;;;;;12.07;9.77;;;5.60;99.90;;;;;;5112740;28;20106;-72
2022/04/06 01:47:12;;;;;;;11.32;9.30;;;5.70;99.90;;;;;;5113944;28;20381;-73
2022/04/06 01:52:23;;;;;;;11.93;10.27;;;5.70;99.90;;;;;;5114298;28;20393;-72
2022/04/06 01:54:54;;;;;;;12.93;9.80;;;5.80;99.90;;;;;;5112505;28;20097;-73
2022/04/06 01:57:20;;;;;;;13.57;10.45;;;5.80;99.90;;;;;;5113733;28;20470;-73
2022/04/06 01:59:47;;;;;;;13.77;10.10;;;5.80;99.90;;;;;;5112508;28;20020;-72
2022/04/06 02:02:15;;;;;;;12.95;9.80;;;5.80;99.90;;;;;;5113775;28;20079;-72
2022/04/06 02:04:41;;;;;;;14.90;10.13;;;5.80;99.90;;;;;;5112387;28;20026;-74
2022/04/06 02:07:09;;;;;;;14.18;11.00;;;5.80;99.90;;;;;;5113756;28;20032;-72
2022/04/06 02:09:36;;;;;;;15.77;10.60;;;5.80;99.90;;;;;;5113641;28;20024;-73
2022/04/06 02:12:02;;;;;;;17.67;12.30;;;5.80;99.90;;;;;;5113563;28;20107;-73
2022/04/06 02:14:28;;;;;;;18.55;12.55;;;5.90;99.90;;;;;;5113705;28;20047;-73
2022/04/06 02:16:53;;;;;;;19.13;13.57;;;5.90;99.90;;;;;;5113620;28;20020;-73
2022/04/06 02:19:19;;;;;;;19.20;13.48;;;5.90;99.90;;;;;;5112314;28;20202;-73
2022/04/06 02:21:45;;;;;;;20.85;13.13;;;5.90;99.90;;;;;;5113660;28;20496;-73
2022/04/06 02:24:10;;;;;;;19.40;14.07;;;5.90;99.90;;;;;;5112206;28;20027;-73
2022/04/06 02:26:36;;;;;;;17.60;13.35;;;5.90;99.90;;;;;;5112138;28;20023;-73
2022/04/06 02:29:02;;;;;;;21.15;14.48;;;5.90;99.90;;;;;;5113656;28;20469;-74
2022/04/06 02:31:28;;;;;;;19.40;13.25;;;5.90;99.90;;;;;;5112029;28;20492;-72
2022/04/06 02:33:53;;;;;;;19.33;13.85;;;5.90;99.90;;;;;;5113813;28;20034;-72
2022/04/06 02:36:19;;;;;;;21.13;13.93;;;5.90;99.90;;;;;;5116254;28;20552;-73
2022/04/06 02:38:47;;;;;;;21.02;14.02;;;5.90;99.90;;;;;;5117500;28;20066;-72
2022/04/06 02:41:13;;;;;;;20.77;14.40;;;5.90;99.90;;;;;;5117425;28;20085;-72
2022/04/06 02:43:39;;;;;;;20.85;13.98;;;5.90;99.90;;;;;;5117457;28;20516;-73
2022/04/06 02:46:05;;;;;;;17.77;13.73;;;5.90;99.90;;;;;;5117319;28;20059;-74
2022/04/06 02:48:30;;;;;;;20.02;14.20;;;5.90;99.90;;;;;;5117355;28;20020;-74
2022/04/06 02:50:56;;;;;;;21.90;14.45;;;5.90;99.90;;;;;;5117130;28;20020;-71
2022/04/06 02:53:22;;;;;;;21.67;14.20;;;5.90;99.90;;;;;;5117246;28;20027;-73
2022/04/06 02:55:48;;;;;;;19.23;13.85;;;5.90;99.90;;;;;;5115749;28;20061;-72
2022/04/06 02:58:14;;;;;;;21.98;16.00;;;5.90;99.90;;;;;;5116072;28;20031;-73
2022/04/06 03:00:39;;;;;;;21.70;14.23;;;5.90;99.90;;;;;;5116995;28;20028;-73
2022/04/06 03:03:05;;;;;;;21.20;13.98;;;5.90;99.90;;;;;;5116975;28;20027;-74
2022/04/06 03:05:31;;;;;;;23.08;14.85;;;5.90;99.90;;;;;;5115661;28;20023;-74
2022/04/06 03:07:56;;;;;;;27.35;17.77;;;6.00;99.90;;;;;;5116995;28;20028;-73
2022/04/06 03:10:22;;;;;;;33.85;19.67;;;6.00;99.90;;;;;;5115549;28;20030;-75
2022/04/06 03:12:47;;;;;;;27.00;18.55;;;6.00;99.90;;;;;;5116935;27;20020;-74
2022/04/06 03:15:14;;;;;;;29.85;18.85;;;6.00;99.90;;;;;;5116773;28;20027;-73
2022/04/06 03:17:41;;;;;;;23.48;16.02;;;6.00;99.90;;;;;;5116716;28;20063;-73
2022/04/06 03:20:13;;;;;;;23.33;14.55;;;6.00;99.90;;;;;;5116651;28;20023;-74
2022/04/06 03:22:39;;;;;;;22.30;15.57;;;6.00;99.90;;;;;;5116909;28;20093;-75
2022/04/06 03:25:06;;;;;;;18.90;14.05;;;6.10;99.90;;;;;;5116585;28;20028;-73
2022/04/06 03:27:33;;;;;;;18.80;13.43;;;6.10;99.90;;;;;;5116529;28;20020;-75
2022/04/06 03:30:00;;;;;;;22.73;15.30;;;6.10;99.90;;;;;;5116516;28;20139;-75
2022/04/06 03:32:25;;;;;;;17.70;13.18;;;6.10;99.90;;;;;;5116392;28;20055;-74
2022/04/06 03:34:51;;;;;;;18.88;13.07;;;6.10;99.90;;;;;;5116523;28;20022;-75
2022/04/06 03:37:16;;;;;;;15.52;11.63;;;6.20;99.90;;;;;;5116428;28;20031;-73
2022/04/06 03:39:42;;;;;;;18.35;13.93;;;6.20;99.90;;;;;;5114979;28;20035;-75
2022/04/06 03:42:07;;;;;;;22.90;13.43;;;6.20;99.90;;;;;;5116352;28;20396;-75
2022/04/06 03:44:33;;;;;;;19.27;13.70;;;6.20;99.90;;;;;;5116156;28;20389;-74
2022/04/06 03:46:58;;;;;;;18.30;12.38;;;6.20;99.90;;;;;;5116111;28;20034;-74
2022/04/06 03:49:24;;;;;;;18.30;13.57;;;6.20;99.90;;;;;;5116230;28;20031;-75
2022/04/06 03:51:49;;;;;;;17.50;12.30;;;6.20;99.90;;;;;;5115988;28;20024;-74
2022/04/06 03:54:15;;;;;;;16.10;11.68;;;6.30;99.90;;;;;;5116135;28;20023;-74
2022/04/06 03:56:40;;;;;;;18.10;12.60;;;6.30;99.90;;;;;;5115830;28;20020;-73
2022/04/06 03:59:06;;;;;;;16.83;12.68;;;6.30;99.90;;;;;;5115939;28;20043;-75
2022/04/06 04:01:35;;;;;;;16.38;12.25;;;6.30;99.90;;;;;;5115840;28;20030;-75
2022/04/06 04:04:01;;;;;;;22.02;13.82;;;6.30;99.90;;;;;;5115934;28;20034;-73
2022/04/06 04:06:26;;;;;;;15.88;11.90;;;6.30;99.90;;;;;;5114498;28;20028;-73
2022/04/06 04:08:52;;;;;;;17.92;12.68;;;6.30;99.90;;;;;;5115890;28;20103;-73
2022/04/06 04:11:17;;;;;;;16.73;12.40;;;6.40;99.90;;;;;;5115683;28;20504;-74
2022/04/06 04:13:43;;;;;;;16.20;11.93;;;6.40;99.90;;;;;;5115694;28;20020;-75
2022/04/06 04:16:08;;;;;;;15.85;11.98;;;6.40;99.90;;;;;;5114219;28;20030;-73
2022/04/06 04:18:34;;;;;;;15.38;12.07;;;6.40;99.90;;;;;;5114373;28;20080;-75
2022/04/06 04:23:44;;;;;;;15.13;11.18;;;6.40;99.90;;;;;;5115612;28;20066;-74
2022/04/06 04:26:09;;;;;;;16.35;11.82;;;6.40;99.90;;;;;;5115473;28;20023;-75
2022/04/06 04:28:35;;;;;;;18.55;11.82;;;6.40;99.90;;;;;;5115326;28;20028;-74
2022/04/06 04:31:01;;;;;;;18.80;12.52;;;6.40;99.90;;;;;;5115182;28;20023;-73
2022/04/06 04:33:27;;;;;;;15.73;11.73;;;6.40;99.90;;;;;;5115288;28;20358;-73
2022/04/06 04:35:53;;;;;;;17.92;13.23;;;6.40;99.90;;;;;;5113728;28;20114;-74
2022/04/06 04:38:18;;;;;;;17.85;12.38;;;6.40;99.90;;;;;;5113805;28;20404;-74
2022/04/06 04:40:44;;;;;;;19.25;13.77;;;6.50;99.90;;;;;;5115026;28;20024;-73
2022/04/06 04:43:09;;;;;;;16.42;12.63;;;6.50;99.90;;;;;;5115006;28;20049;-74
2022/04/06 04:45:35;;;;;;;19.95;13.60;;;6.50;99.90;;;;;;5114876;28;20026;-73
2022/04/06 04:48:00;;;;;;;22.40;15.52;;;6.50;99.90;;;;;;5114976;27;20517;-74
2022/04/06 04:50:26;;;;;;;20.77;14.50;;;6.50;99.90;;;;;;5114854;28;20023;-74
2022/04/06 04:52:52;;;;;;;28.25;17.75;;;6.50;99.90;;;;;;5113605;28;20381;-74
2022/04/06 04:55:18;;;;;;;23.67;15.65;;;6.60;99.90;;;;;;5114865;28;20114;-75
2022/04/06 04:57:44;;;;;;;22.67;13.13;;;6.50;99.90;;;;;;5112973;28;20028;-74
2022/04/06 05:00:10;;;;;;;19.02;13.50;;;6.60;99.90;;;;;;5114900;28;20046;-74
2022/04/06 05:02:39;;;;;;;17.73;12.88;;;6.60;99.90;;;;;;5114090;28;20019;-73
2022/04/06 05:05:08;;;;;;;17.77;12.05;;;6.60;99.90;;;;;;5111802;28;20508;-74
2022/04/06 05:07:37;;;;;;;22.05;14.43;;;6.60;99.90;;;;;;5114504;28;20012;-73
2022/04/06 05:10:07;;;;;;;21.02;14.13;;;6.70;99.90;;;;;;5113266;28;20023;-73
2022/04/06 05:12:32;;;;;;;21.52;14.82;;;6.70;99.90;;;;;;5113472;28;20492;-74
2022/04/06 05:15:01;;;;;;;21.05;15.10;;;6.70;99.90;;;;;;5106235;28;20031;-74
2022/04/06 05:17:27;;;;;;;28.50;17.40;;;6.70;99.90;;;;;;5113113;27;20481;-75
2022/04/06 05:19:54;;;;;;;50.97;27.65;;;6.80;99.90;;;;;;5113157;28;20038;-74
2022/04/06 05:22:19;;;;;;;43.05;23.23;;;6.80;99.90;;;;;;5109992;27;20378;-74
2022/04/06 05:24:45;;;;;;;36.90;19.98;;;6.80;99.90;;;;;;5113438;28;20031;-75
2022/04/06 05:27:10;;;;;;;34.60;20.13;;;6.90;99.90;;;;;;5111640;28;20008;-74
2022/04/06 05:29:36;;;;;;;39.38;21.25;;;6.90;99.90;;;;;;5112782;28;20019;-75
2022/04/06 05:32:03;;;;;;;36.67;21.13;;;7.00;99.90;;;;;;5113865;28;20098;-76
2022/04/06 05:34:29;;;;;;;33.20;20.38;;;7.00;99.90;;;;;;5113237;28;20028;-75
2022/04/06 05:36:55;;;;;;;62.08;30.83;;;7.10;99.90;;;;;;5113990;28;20020;-76
2022/04/06 05:39:20;;;;;;;80.00;37.35;;;7.10;99.90;;;;;;5113056;28;20105;-76
2022/04/06 05:41:46;;;;;;;59.33;31.00;;;7.20;99.90;;;;;;5112851;28;20080;-76
2022/04/06 05:44:11;;;;;;;55.38;28.70;;;7.20;99.90;;;;;;5113971;28;20022;-76
2022/04/06 05:46:37;;;;;;;50.10;26.52;;;7.20;99.90;;;;;;5113497;28;20060;-74
2022/04/06 05:49:03;;;;;;;26.55;16.25;;;7.20;99.90;;;;;;5108762;28;20020;-76
2022/04/06 05:51:28;;;;;;;37.03;19.77;;;7.30;99.90;;;;;;5111500;28;20488;-75
2022/04/06 05:53:54;;;;;;;22.40;16.77;;;7.30;99.90;;;;;;5112982;28;20062;-74
2022/04/06 05:56:19;;;;;;;37.10;24.70;;;7.30;99.90;;;;;;5113333;28;20022;-74
2022/04/06 05:58:45;;;;;;;43.25;29.25;;;7.30;99.90;;;;;;5113046;28;20042;-75
2022/04/06 06:01:11;;;;;;;73.47;42.08;;;7.40;99.90;;;;;;5111760;28;20512;-74
2022/04/06 06:03:36;;;;;;;37.25;18.50;;;7.50;99.90;;;;;;5111675;28;20061;-75
2022/04/06 06:06:02;;;;;;;53.67;22.92;;;7.50;99.90;;;;;;5111746;28;20083;-74
2022/04/06 06:08:28;;;;;;;167.93;69.80;;;7.60;99.90;;;;;;5110194;28;20015;-74
2022/04/06 06:10:54;;;;;;;74.13;37.28;;;7.60;99.90;;;;;;5114692;28;20110;-74
2022/04/06 06:13:19;;;;;;;89.50;33.30;;;7.70;99.90;;;;;;5115895;28;20011;-75
2022/04/06 06:15:45;;;;;;;57.33;23.80;;;7.70;99.90;;;;;;5114706;28;20395;-74
2022/04/06 06:18:12;;;;;;;38.20;18.20;;;7.80;99.90;;;;;;5117573;28;20036;-76
2022/04/06 06:20:37;;;;;;;23.90;14.90;;;7.80;99.90;;;;;;5118110;28;20022;-75
2022/04/06 06:23:03;;;;;;;30.70;16.65;;;7.90;99.90;;;;;;5116558;28;20305;-76
2022/04/06 06:25:28;;;;;;;33.80;18.63;;;7.90;99.90;;;;;;5114286;28;20392;-76
2022/04/06 06:27:54;;;;;;;27.00;15.05;;;8.00;99.90;;;;;;5115486;28;20039;-76
2022/04/06 06:30:21;;;;;;;24.90;15.05;;;8.00;99.90;;;;;;5115526;28;20024;-74
2022/04/06 06:32:46;;;;;;;32.10;15.65;;;8.20;99.90;;;;;;5114191;28;20382;-74
2022/04/06 06:35:12;;;;;;;32.20;17.58;;;8.20;99.90;;;;;;5116069;28;20031;-76
2022/04/06 06:37:48;;;;;;;25.52;14.93;;;8.20;99.90;;;;;;5116382;28;20031;-74
2022/04/06 06:40:16;;;;;;;24.88;14.65;;;8.20;99.90;;;;;;5116125;28;20024;-74
2022/04/06 06:42:41;;;;;;;19.42;12.63;;;8.20;99.90;;;;;;5117187;28;20011;-74
2022/04/06 06:45:07;;;;;;;29.45;17.50;;;8.20;99.90;;;;;;5117208;28;20026;-76
2022/04/06 06:47:33;;;;;;;19.98;14.10;;;8.20;99.90;;;;;;5115911;28;20031;-74
2022/04/06 06:49:58;;;;;;;22.92;13.82;;;8.20;99.90;;;;;;5115951;28;20061;-75
2022/04/06 06:52:24;;;;;;;17.50;11.50;;;8.20;99.90;;;;;;5117325;28;20024;-75
2022/04/06 06:54:50;;;;;;;29.75;17.00;;;8.20;99.90;;;;;;5115903;28;20026;-75
2022/04/06 06:57:15;;;;;;;14.68;11.02;;;8.20;99.90;;;;;;5117174;28;20056;-75
2022/04/06 06:59:41;;;;;;;16.00;11.40;;;8.20;99.90;;;;;;5117076;28;20484;-76
2022/04/06 07:02:08;;;;;;;16.08;10.32;;;8.20;99.90;;;;;;5117124;28;20016;-75
2022/04/06 07:04:34;;;;;;;19.67;12.13;;;8.10;99.90;;;;;;5117054;28;20427;-76
2022/04/06 07:06:59;;;;;;;19.95;12.38;;;8.20;99.90;;;;;;5117092;28;20016;-75
2022/04/06 07:09:25;;;;;;;17.95;12.02;;;8.10;99.90;;;;;;5117113;28;20095;-74
2022/04/06 07:11:52;;;;;;;15.98;11.27;;;8.20;99.90;;;;;;5115691;28;20020;-75
2022/04/06 07:14:18;;;;;;;17.98;11.43;;;8.20;99.90;;;;;;5115604;28;20020;-76
2022/04/06 07:16:44;;;;;;;19.70;11.20;;;8.30;99.90;;;;;;5116992;28;20039;-76
2022/04/06 07:19:09;;;;;;;14.75;9.65;;;8.40;99.90;;;;;;5115533;28;20028;-76
2022/04/06 07:21:35;;;;;;;17.02;10.00;;;8.50;99.90;;;;;;5116263;28;20099;-76
2022/04/06 07:24:03;;;;;;;14.38;9.73;;;8.60;99.90;;;;;;5116705;28;20027;-76
2022/04/06 07:26:29;;;;;;;11.88;8.80;;;8.70;99.90;;;;;;5116587;28;20026;-74
2022/04/06 07:28:54;;;;;;;12.88;9.23;;;8.80;99.90;;;;;;5116631;27;20108;-75
2022/04/06 07:31:20;;;;;;;15.52;10.15;;;8.90;99.90;;;;;;5116278;28;20087;-75
2022/04/06 07:33:46;;;;;;;12.00;9.60;;;9.00;99.90;;;;;;5115430;28;20134;-75
2022/04/06 07:36:13;;;;;;;15.50;10.02;;;9.00;99.90;;;;;;5115192;28;20036;-74
2022/04/06 07:38:39;;;;;;;12.23;9.40;;;9.10;99.90;;;;;;5116322;28;20039;-74
2022/04/06 07:41:05;;;;;;;13.15;9.52;;;9.10;99.90;;;;;;5115059;28;20019;-75
2022/04/06 07:43:30;;;;;;;12.40;9.63;;;9.10;99.90;;;;;;5116407;28;20038;-76
2022/04/06 07:45:56;;;;;;;14.70;9.50;;;9.10;99.90;;;;;;5114906;28;20043;-76
2022/04/06 07:48:25;;;;;;;14.52;9.50;;;9.10;99.90;;;;;;5114952;28;20036;-75
2022/04/06 07:50:50;;;;;;;12.25;9.35;;;9.00;99.90;;;;;;5116289;28;20043;-75
2022/04/06 07:53:17;;;;;;;13.95;9.43;;;9.00;99.90;;;;;;5116149;28;20055;-76
2022/04/06 07:55:44;;;;;;;14.73;10.63;;;9.00;99.90;;;;;;5114968;28;20012;-74
2022/04/06 07:58:10;;;;;;;11.40;8.02;;;9.00;99.90;;;;;;5115917;28;20063;-75
2022/04/06 08:00:36;;;;;;;16.15;9.98;;;8.90;99.90;;;;;;5114751;28;20039;-76
2022/04/06 08:03:01;;;;;;;12.55;9.02;;;8.90;99.90;;;;;;5114735;28;20028;-75
2022/04/06 08:05:27;;;;;;;11.45;8.90;;;8.90;99.90;;;;;;5115955;28;20100;-76
2022/04/06 08:07:53;;;;;;;12.40;9.45;;;9.00;99.90;;;;;;5115939;28;20037;-76
2022/04/06 08:10:20;;;;;;;12.10;9.15;;;9.00;99.90;;;;;;5115822;28;20016;-75
2022/04/06 08:12:47;;;;;;;12.60;9.32;;;9.10;99.90;;;;;;5115840;28;20032;-76
2022/04/06 08:15:15;;;;;;;10.25;8.32;;;9.20;99.90;;;;;;5115796;28;20047;-76
2022/04/06 08:17:44;;;;;;;11.27;7.47;;;9.20;99.90;;;;;;5114372;28;20020;-76
2022/04/06 08:20:11;;;;;;;14.20;9.23;;;9.30;99.90;;;;;;5114341;28;20111;-75
2022/04/06 08:22:38;;;;;;;9.00;6.95;;;9.20;99.90;;;;;;5115564;28;20026;-75
2022/04/06 08:25:04;;;;;;;9.77;7.80;;;9.30;99.90;;;;;;5114284;28;20060;-74
2022/04/06 08:27:32;;;;;;;11.38;7.80;;;9.20;99.90;;;;;;5114209;28;20028;-74
2022/04/06 08:29:57;;;;;;;10.02;7.22;;;9.20;99.90;;;;;;5115442;28;20028;-75
2022/04/06 08:32:23;;;;;;;10.45;7.03;;;9.10;99.90;;;;;;5113117;28;20070;-74
2022/04/06 08:34:49;;;;;;;8.93;7.60;;;9.10;99.90;;;;;;5115222;28;20031;-76
2022/04/06 08:37:14;;;;;;;12.68;8.15;;;9.00;99.90;;;;;;5113987;28;20030;-74
2022/04/06 08:39:40;;;;;;;8.68;7.40;;;9.10;99.90;;;;;;5113799;28;20039;-74
2022/04/06 08:42:06;;;;;;;11.00;7.82;;;9.10;99.90;;;;;;5113855;28;20049;-76
2022/04/06 08:44:32;;;;;;;10.90;7.55;;;9.00;99.90;;;;;;5115093;28;20069;-76
2022/04/06 08:47:06;;;;;;;8.55;7.65;;;9.10;99.90;;;;;;5115039;28;20027;-75
2022/04/06 08:49:34;;;;;;;10.70;7.85;;;9.10;99.90;;;;;;5113947;28;20103;-76
2022/04/06 08:52:01;;;;;;;10.68;7.45;;;9.10;99.90;;;;;;5115021;28;20455;-76
2022/04/06 08:54:26;;;;;;;9.90;7.68;;;9.10;99.90;;;;;;5115079;28;20030;-75
2022/04/06 08:56:52;;;;;;;11.10;8.20;;;9.00;99.90;;;;;;5114104;28;20473;-76
2022/04/06 08:59:18;;;;;;;14.05;10.88;;;9.00;99.90;;;;;;5113385;28;20508;-75
2022/04/06 09:01:43;;;;;;;12.00;9.18;;;9.00;99.90;;;;;;5113572;28;20110;-75
2022/04/06 09:04:09;;;;;;;11.95;9.48;;;8.90;99.90;;;;;;5113846;28;20480;-76
2022/04/06 09:06:42;;;;;;;14.98;11.25;;;8.90;99.90;;;;;;5113540;28;20114;-74
2022/04/06 09:09:09;;;;;;;12.52;9.60;;;8.90;99.90;;;;;;5114723;28;20392;-76
2022/04/06 09:11:44;;;;;;;13.52;9.00;;;8.80;99.90;;;;;;5114650;28;20028;-75
2022/04/06 09:14:11;;;;;;;11.10;9.40;;;8.80;99.90;;;;;;5114633;27;20027;-76
2022/04/06 09:16:37;;;;;;;15.75;11.15;;;8.80;99.90;;;;;;5113182;28;20023;-74
2022/04/06 09:19:14;;;;;;;10.35;9.15;;;8.90;99.90;;;;;;5113155;28;20535;-75
2022/04/06 09:21:48;;;;;;;14.25;10.43;;;8.90;99.90;;;;;;5114489;28;20016;-75
2022/04/06 09:24:18;;;;;;;14.20;10.40;;;8.90;99.90;;;;;;5113186;28;20118;-76
2022/04/06 09:26:54;;;;;;;14.32;11.23;;;8.90;99.90;;;;;;5114321;28;20023;-75
2022/04/06 09:29:20;;;;;;;15.45;11.57;;;8.90;99.90;;;;;;5114435;28;20073;-75
2022/04/06 09:31:49;;;;;;;15.25;11.20;;;8.90;99.90;;;;;;5114130;28;20457;-74
2022/04/06 09:34:15;;;;;;;13.80;11.07;;;8.90;99.90;;;;;;5114203;28;20024;-76
2022/04/06 09:36:41;;;;;;;13.10;10.63;;;9.00;99.90;;;;;;5114219;28;20042;-76
2022/04/06 09:39:07;;;;;;;11.60;10.40;;;9.00;99.90;;;;;;5114133;28;20024;-75
2022/04/06 09:41:34;;;;;;;14.90;10.70;;;9.00;99.90;;;;;;5112793;28;20019;-76
2022/04/06 09:47:38;;;;;;;11.07;9.20;;;9.10;99.90;;;;;;5113880;28;20051;-74
2022/04/06 09:50:23;;;;;;;10.73;9.00;;;9.30;99.90;;;;;;5114454;28;20031;-75
2022/04/06 09:52:53;;;;;;;10.88;8.27;;;9.30;99.90;;;;;;5114207;28;20476;-74
2022/04/06 09:55:21;;;;;;;11.15;8.73;;;9.40;99.90;;;;;;5114060;28;20027;-76
2022/04/06 09:57:50;;;;;;;8.98;8.07;;;9.30;99.90;;;;;;5113903;28;20016;-74
2022/04/06 10:00:23;;;;;;;11.48;8.77;;;9.30;99.90;;;;;;5112691;28;20028;-75
2022/04/06 10:03:10;;;;;;;9.35;7.88;;;9.30;99.90;;;;;;5112596;28;20123;-75
2022/04/06 10:05:38;;;;;;;10.25;8.18;;;9.30;99.90;;;;;;5112453;28;20423;-75
2022/04/06 10:08:09;;;;;;;11.10;8.07;;;9.20;99.90;;;;;;5113890;28;20051;-74
2022/04/06 10:10:38;;;;;;;9.02;8.02;;;9.20;99.90;;;;;;5113797;28;20058;-75
2022/04/06 10:13:10;;;;;;;9.68;7.80;;;9.10;99.90;;;;;;5112601;28;20016;-74
2022/04/06 10:15:37;;;;;;;9.88;7.68;;;9.10;99.90;;;;;;5113843;28;20028;-75
2022/04/06 10:18:04;;;;;;;11.13;8.43;;;9.10;99.90;;;;;;5112406;28;20032;-76
2022/04/06 10:20:36;;;;;;;10.27;7.90;;;9.20;99.90;;;;;;5112273;28;20051;-76
2022/04/06 10:23:43;;;;;;;9.70;7.90;;;9.20;99.90;;;;;;5112454;28;20024;-76
2022/04/06 10:26:21;;;;;;;8.40;7.50;;;9.30;99.90;;;;;;5113668;28;20043;-76
2022/04/06 10:28:49;;;;;;;8.15;7.25;;;9.30;99.90;;;;;;5113719;28;20105;-76
2022/04/06 10:31:19;;;;;;;8.48;7.57;;;9.30;99.90;;;;;;5111933;28;20123;-76
2022/04/06 10:33:47;;;;;;;7.25;6.55;;;9.30;99.90;;;;;;5112296;28;20396;-75
2022/04/06 10:36:26;;;;;;;9.60;6.63;;;9.30;99.90;;;;;;5113599;28;20369;-76
2022/04/06 10:39:06;;;;;;;7.07;5.90;;;9.30;99.90;;;;;;5112303;28;20453;-75
2022/04/06 10:41:33;;;;;;;7.90;7.07;;;9.30;99.90;;;;;;5112218;28;20050;-75
2022/04/06 10:43:59;;;;;;;10.60;6.93;;;9.40;99.90;;;;;;5112055;28;20040;-76
2022/04/06 10:46:38;;;;;;;7.10;6.40;;;9.40;99.90;;;;;;5112188;28;20046;-75
2022/04/06 10:49:07;;;;;;;8.43;6.55;;;9.40;99.90;;;;;;5113439;28;20020;-76
2022/04/06 10:51:34;;;;;;;9.43;6.65;;;9.40;99.90;;;;;;5112014;28;20165;-75
2022/04/06 10:54:19;;;;;;;7.88;6.47;;;9.40;99.90;;;;;;5113213;28;20525;-76
2022/04/06 10:56:54;;;;;;;8.25;6.50;;;9.50;99.90;;;;;;5108345;28;20035;-74
2022/04/06 10:59:24;;;;;;;10.98;6.45;;;9.50;99.90;;;;;;5116012;28;20041;-76
2022/04/06 11:02:15;;;;;;;8.80;6.35;;;9.50;99.90;;;;;;5117271;28;20055;-76
2022/04/06 11:04:41;;;;;;;8.20;6.10;;;9.50;99.90;;;;;;5116985;28;20489;-76
2022/04/06 11:07:08;;;;;;;7.70;6.63;;;9.60;99.90;;;;;;5117087;28;20026;-74
2022/04/06 11:12:33;;;;;;;7.00;6.13;;;9.70;99.90;;;;;;5117052;28;20474;-74
2022/04/06 11:14:59;;;;;;;7.28;5.78;;;9.80;99.90;;;;;;5115756;28;20036;-76
2022/04/06 11:17:42;;;;;;;7.70;6.28;;;9.90;99.90;;;;;;5116041;28;20020;-76
2022/04/06 11:20:18;;;;;;;8.60;7.05;;;10.00;99.90;;;;;;5116977;28;20039;-77
2022/04/06 11:22:50;;;;;;;7.90;6.45;;;10.10;99.90;;;;;;5115281;28;20575;-75
2022/04/06 11:25:21;;;;;;;8.68;7.10;;;10.20;99.90;;;;;;5115451;27;20047;-75
2022/04/06 11:27:48;;;;;;;9.25;6.22;;;10.20;99.90;;;;;;5115308;28;20027;-75
2022/04/06 11:30:16;;;;;;;8.60;6.28;;;10.30;99.90;;;;;;5116551;27;20042;-75
2022/04/06 11:32:49;;;;;;;9.45;6.00;;;10.50;99.90;;;;;;5115180;28;20043;-76
2022/04/06 11:35:15;;;;;;;7.07;6.38;;;10.60;99.90;;;;;;5115432;28;20024;-74
2022/04/06 11:37:42;;;;;;;9.15;6.47;;;10.60;99.90;;;;;;5115353;28;20035;-74
2022/04/06 11:40:11;;;;;;;8.38;5.78;;;10.60;99.90;;;;;;5116522;28;20422;-76
2022/04/06 11:42:38;;;;;;;7.18;5.60;;;10.70;99.90;;;;;;5115098;28;20071;-76
2022/04/06 11:45:04;;;;;;;7.40;6.18;;;10.70;99.90;;;;;;5116409;28;20027;-74
2022/04/06 11:47:38;;;;;;;7.43;5.63;;;10.70;99.90;;;;;;5116633;28;20107;-76
2022/04/06 11:50:10;;;;;;;10.25;6.75;;;10.80;99.90;;;;;;5116213;28;20354;-74
2022/04/06 11:52:40;;;;;;;8.13;5.35;;;10.80;99.90;;;;;;5115298;28;20384;-74
2022/04/06 11:55:07;;;;;;;6.82;5.28;;;11.00;99.90;;;;;;5116162;28;20059;-76
2022/04/06 11:57:43;;;;;;;7.30;6.20;;;11.30;99.90;;;;;;5116146;28;20023;-76
2022/04/06 12:00:13;;;;;;;5.75;5.25;;;11.30;97.00;;;;;;5116103;28;20027;-76
2022/04/06 12:02:55;;;;;;;7.50;5.88;;;11.50;96.70;;;;;;5116510;28;20027;-75
2022/04/06 12:05:22;;;;;;;6.28;4.80;;;11.60;92.60;;;;;;5114804;28;20027;-73
2022/04/06 12:07:48;;;;;;;6.45;4.35;;;11.60;92.90;;;;;;5113192;28;20061;-73
2022/04/06 12:10:15;;;;;;;5.38;4.35;;;11.60;90.20;;;;;;5115631;28;20112;-73
2022/04/06 12:12:41;;;;;;;5.15;4.47;;;11.70;91.50;;;;;;5115439;28;20030;-73
2022/04/06 12:15:09;;;;;;;7.05;5.03;;;11.80;89.30;;;;;;5115557;28;20142;-73
2022/04/06 12:17:36;;;;;;;7.80;4.93;;;11.90;88.10;;;;;;5115227;28;20028;-72
2022/04/06 12:20:22;;;;;;;4.85;4.35;;;11.70;86.00;;;;;;5115289;28;20032;-73
2022/04/06 12:23:05;;;;;;;6.95;4.55;;;11.80;86.60;;;;;;5111183;28;20031;-77
2022/04/06 12:25:33;;;;;;;7.28;4.78;;;11.90;85.90;;;;;;5092452;28;20036;-76
2022/04/06 12:28:25;;;;;;;5.93;4.78;;;11.90;83.90;;;;;;5099659;28;20124;-73
2022/04/06 12:31:17;;;;;;;5.63;4.53;;;11.90;82.50;;;;;;5111869;27;20028;-75
2022/04/06 12:33:46;;;;;;;6.10;4.57;;;11.90;82.40;;;;;;5107246;28;20515;-75
2022/04/06 12:36:19;;;;;;;7.13;4.20;;;12.00;80.60;;;;;;5112378;28;20362;-76
2022/04/06 12:39:15;;;;;;;7.20;4.25;;;12.00;80.80;;;;;;5112533;28;20051;-76
2022/04/06 12:41:57;;;;;;;6.18;4.35;;;12.10;79.90;;;;;;5110887;28;20027;-76
2022/04/06 12:44:23;;;;;;;4.53;3.85;;;12.10;78.40;;;;;;5114135;28;20088;-74
2022/04/06 12:47:01;;;;;;;4.93;4.13;;;12.20;77.50;;;;;;5113865;28;20055;-76
2022/04/06 12:49:32;;;;;;;5.55;4.53;;;12.30;79.70;;;;;;5112781;27;20059;-75
2022/04/06 12:52:22;;;;;;;6.63;5.00;;;12.30;78.60;;;;;;5113982;28;20120;-75
2022/04/06 12:54:59;;;;;;;7.45;4.63;;;12.30;76.40;;;;;;5113884;27;20020;-77
2022/04/06 12:57:25;;;;;;;6.05;4.90;;;12.30;77.20;;;;;;5112673;28;20026;-76
2022/04/06 13:00:08;;;;;;;8.43;4.95;;;12.30;77.20;;;;;;5112415;28;20475;-74